Time;durP1;ratioP1;P1;durP2;ratioP2;P2;SDS_P1;SDS_P2;PMS_P1;PMS_P2;Temp;Humidity;BMP_temperature;BMP_pressure;BME280_temperature;BME280_humidity;BME280_pressure;Samples;Min_cycle;Max_cycle;Signal;HPM_P1;HPM_P2
2021/12/09 00:00:01;;;;;;;0.40;0.40;;;5.00;98.20;;;;;;4955125;29;20247;-75
2021/12/09 00:02:29;;;;;;;0.40;0.40;;;5.00;98.10;;;;;;4956266;28;20200;-72
2021/12/09 00:04:57;;;;;;;0.40;0.40;;;5.00;98.20;;;;;;4956323;29;20205;-73
2021/12/09 00:07:24;;;;;;;0.30;0.30;;;4.90;98.20;;;;;;4956704;28;20205;-74
2021/12/09 00:09:50;;;;;;;0.30;0.30;;;4.90;98.30;;;;;;4956380;29;20248;-75
2021/12/09 00:12:17;;;;;;;0.38;0.38;;;5.00;98.40;;;;;;4956193;28;20204;-74
2021/12/09 00:14:43;;;;;;;0.32;0.32;;;5.00;98.30;;;;;;4956050;28;20219;-75
2021/12/09 00:17:10;;;;;;;0.30;0.30;;;5.00;98.40;;;;;;4956069;28;20582;-75
2021/12/09 00:19:38;;;;;;;0.30;0.30;;;4.90;98.20;;;;;;4956209;29;20401;-74
2021/12/09 00:22:11;;;;;;;0.40;0.40;;;4.90;98.20;;;;;;4956410;28;20293;-72
2021/12/09 00:24:37;;;;;;;0.40;0.40;;;4.80;98.30;;;;;;4955634;28;20257;-73
2021/12/09 00:27:03;;;;;;;0.33;0.33;;;4.90;98.30;;;;;;4955869;28;20572;-74
2021/12/09 00:29:29;;;;;;;0.32;0.32;;;4.90;98.20;;;;;;4956103;29;20768;-74
2021/12/09 00:31:54;;;;;;;0.40;0.40;;;4.90;98.20;;;;;;4954735;29;20201;-74
2021/12/09 00:34:28;;;;;;;0.40;0.40;;;5.00;98.30;;;;;;4955736;29;20177;-73
2021/12/09 00:36:58;;;;;;;0.30;0.30;;;4.90;98.20;;;;;;4955944;28;20259;-74
2021/12/09 00:39:24;;;;;;;0.35;0.35;;;4.80;98.20;;;;;;4955542;29;20281;-72
2021/12/09 00:41:50;;;;;;;0.30;0.30;;;4.80;98.30;;;;;;4955864;28;20286;-76
2021/12/09 00:44:16;;;;;;;0.30;0.30;;;4.90;98.30;;;;;;4955736;28;20645;-75
2021/12/09 00:46:42;;;;;;;0.40;0.40;;;4.80;98.30;;;;;;4954386;29;20276;-75
2021/12/09 00:49:08;;;;;;;0.30;0.30;;;4.80;98.20;;;;;;4955426;28;20205;-73
2021/12/09 00:51:34;;;;;;;0.30;0.30;;;4.70;98.30;;;;;;4955555;28;20404;-74
2021/12/09 00:54:00;;;;;;;0.40;0.40;;;4.70;98.50;;;;;;4955697;28;20186;-73
2021/12/09 00:56:26;;;;;;;0.40;0.40;;;4.80;98.50;;;;;;4955560;29;20449;-74
2021/12/09 00:58:53;;;;;;;0.40;0.40;;;4.80;98.30;;;;;;4954089;29;20634;-72
2021/12/09 01:01:19;;;;;;;0.30;0.30;;;4.70;98.30;;;;;;4955655;29;20177;-73
2021/12/09 01:03:45;;;;;;;0.40;0.40;;;4.90;98.40;;;;;;4955577;28;20619;-75
2021/12/09 01:06:11;;;;;;;0.30;0.30;;;4.90;98.40;;;;;;4955620;29;20448;-75
2021/12/09 01:08:39;;;;;;;0.40;0.40;;;4.90;98.30;;;;;;4955277;29;20413;-75
2021/12/09 01:11:06;;;;;;;0.40;0.40;;;4.80;98.20;;;;;;4955482;28;20413;-75
2021/12/09 01:13:32;;;;;;;0.30;0.30;;;4.70;98.20;;;;;;4955237;29;20252;-75
2021/12/09 01:15:58;;;;;;;0.40;0.40;;;4.50;98.30;;;;;;4955363;29;20272;-75
2021/12/09 01:18:25;;;;;;;0.30;0.30;;;4.50;98.50;;;;;;4953894;29;20180;-76
2021/12/09 01:20:51;;;;;;;0.40;0.40;;;4.60;98.70;;;;;;4955443;28;20855;-74
2021/12/09 01:23:17;;;;;;;0.40;0.40;;;4.40;98.40;;;;;;4955155;28;20689;-73
2021/12/09 01:25:43;;;;;;;0.40;0.40;;;4.30;98.50;;;;;;4955430;28;20185;-75
2021/12/09 01:28:25;;;;;;;0.40;0.40;;;4.30;98.50;;;;;;4955091;29;20601;-75
2021/12/09 01:30:59;;;;;;;0.30;0.30;;;4.30;98.80;;;;;;4955188;28;20178;-74
2021/12/09 01:33:24;;;;;;;0.30;0.30;;;4.40;98.80;;;;;;4953860;29;20716;-73
2021/12/09 01:35:50;;;;;;;0.30;0.30;;;4.40;98.70;;;;;;4955838;28;20233;-73
2021/12/09 01:38:17;;;;;;;0.30;0.30;;;4.50;98.70;;;;;;4958880;29;20589;-72
2021/12/09 01:40:43;;;;;;;0.30;0.30;;;4.50;98.40;;;;;;4959167;29;20220;-73
2021/12/09 01:43:09;;;;;;;0.40;0.40;;;4.50;98.10;;;;;;4958870;28;20231;-74
2021/12/09 01:45:35;;;;;;;0.40;0.40;;;4.50;97.90;;;;;;4959324;29;20205;-73
2021/12/09 01:48:01;;;;;;;0.30;0.30;;;4.40;97.90;;;;;;4958751;29;20551;-74
2021/12/09 01:50:27;;;;;;;0.30;0.30;;;4.40;97.90;;;;;;4957646;29;20544;-73
2021/12/09 01:52:53;;;;;;;0.30;0.30;;;4.30;97.90;;;;;;4957417;29;20220;-73
2021/12/09 01:55:20;;;;;;;0.40;0.40;;;4.20;98.00;;;;;;4958630;28;20200;-73
2021/12/09 01:57:48;;;;;;;0.40;0.40;;;4.20;98.10;;;;;;4958669;28;20543;-75
2021/12/09 02:00:16;;;;;;;0.30;0.30;;;4.20;98.00;;;;;;4958535;28;20195;-72
2021/12/09 02:02:43;;;;;;;0.40;0.40;;;3.90;97.80;;;;;;4958504;29;20189;-75
2021/12/09 02:05:11;;;;;;;0.40;0.40;;;3.70;98.20;;;;;;4958669;28;20192;-72
2021/12/09 02:07:38;;;;;;;0.30;0.30;;;3.90;98.40;;;;;;4958436;28;20191;-75
2021/12/09 02:10:08;;;;;;;0.30;0.30;;;4.10;98.40;;;;;;4957337;29;20180;-74
2021/12/09 02:12:34;;;;;;;0.30;0.30;;;4.10;98.20;;;;;;4958298;28;20203;-75
2021/12/09 02:15:01;;;;;;;0.30;0.30;;;4.20;98.10;;;;;;4958337;29;20267;-73
2021/12/09 02:17:31;;;;;;;0.30;0.30;;;4.10;97.80;;;;;;4958363;28;20176;-73
2021/12/09 02:19:58;;;;;;;0.30;0.30;;;4.10;97.90;;;;;;4958379;29;20549;-74
2021/12/09 02:22:25;;;;;;;0.40;0.40;;;4.10;97.90;;;;;;4958229;29;20194;-73
2021/12/09 02:24:55;;;;;;;0.30;0.30;;;4.20;97.80;;;;;;4956890;29;20201;-74
2021/12/09 02:27:22;;;;;;;0.30;0.30;;;4.00;97.80;;;;;;4957953;28;20220;-74
2021/12/09 02:29:49;;;;;;;0.40;0.40;;;4.10;98.10;;;;;;4958144;28;20715;-73
2021/12/09 02:32:14;;;;;;;0.30;0.30;;;4.20;97.60;;;;;;4958200;29;20668;-76
2021/12/09 02:34:40;;;;;;;0.40;0.40;;;4.30;97.50;;;;;;4957954;28;20207;-74
2021/12/09 02:37:09;;;;;;;0.40;0.40;;;4.30;97.40;;;;;;4957998;29;20266;-73
2021/12/09 02:39:35;;;;;;;0.30;0.30;;;4.40;97.40;;;;;;4957968;28;20169;-74
2021/12/09 02:42:01;;;;;;;0.30;0.30;;;4.40;97.10;;;;;;4957890;28;20549;-72
2021/12/09 02:44:27;;;;;;;0.40;0.40;;;4.40;97.10;;;;;;4956602;29;20264;-73
2021/12/09 02:46:55;;;;;;;0.30;0.30;;;4.20;97.30;;;;;;4957866;28;20688;-72
2021/12/09 02:49:24;;;;;;;0.30;0.30;;;4.20;97.50;;;;;;4957650;28;20793;-74
2021/12/09 02:51:51;;;;;;;0.40;0.40;;;4.10;97.80;;;;;;4957853;29;20200;-73
2021/12/09 02:54:19;;;;;;;0.40;0.40;;;4.10;98.10;;;;;;4957709;28;20177;-75
2021/12/09 02:56:49;;;;;;;0.32;0.32;;;4.20;98.40;;;;;;4957576;28;20212;-74
2021/12/09 02:59:15;;;;;;;0.30;0.30;;;4.00;98.30;;;;;;4957343;29;20223;-73
2021/12/09 03:01:55;;;;;;;0.40;0.40;;;4.10;98.50;;;;;;4957629;28;20166;-75
2021/12/09 03:04:21;;;;;;;0.38;0.38;;;4.10;98.60;;;;;;4957536;29;20157;-74
2021/12/09 03:06:48;;;;;;;0.40;0.40;;;4.20;98.50;;;;;;4957424;28;20176;-76
2021/12/09 03:09:17;;;;;;;0.40;0.40;;;4.30;98.50;;;;;;4957304;29;20173;-76
2021/12/09 03:11:48;;;;;;;0.40;0.40;;;4.40;98.50;;;;;;4957488;28;20591;-74
2021/12/09 03:14:13;;;;;;;0.40;0.40;;;4.40;98.40;;;;;;4957357;29;20162;-72
2021/12/09 03:16:40;;;;;;;0.40;0.40;;;4.50;98.20;;;;;;4956123;29;20693;-74
2021/12/09 03:19:07;;;;;;;0.40;0.40;;;4.40;98.10;;;;;;4957115;28;20536;-76
2021/12/09 03:21:37;;;;;;;0.40;0.40;;;4.50;98.20;;;;;;4957293;28;20176;-75
2021/12/09 03:24:05;;;;;;;0.40;0.40;;;4.50;98.10;;;;;;4957143;28;20521;-75
2021/12/09 03:26:36;;;;;;;0.40;0.40;;;4.50;98.00;;;;;;4957205;28;20256;-72
2021/12/09 03:29:04;;;;;;;0.40;0.40;;;4.60;98.00;;;;;;4957139;29;20173;-73
2021/12/09 03:31:31;;;;;;;0.30;0.30;;;4.60;97.90;;;;;;4955797;28;20680;-76
2021/12/09 03:33:57;;;;;;;0.40;0.40;;;4.60;97.70;;;;;;4957150;28;20193;-73
2021/12/09 03:36:28;;;;;;;0.40;0.40;;;4.60;97.70;;;;;;4955816;29;20684;-76
2021/12/09 03:38:54;;;;;;;0.32;0.32;;;4.60;97.70;;;;;;4957001;28;20170;-72
2021/12/09 03:41:21;;;;;;;0.30;0.30;;;4.60;97.80;;;;;;4956953;28;20187;-74
2021/12/09 03:43:46;;;;;;;0.38;0.38;;;4.60;97.80;;;;;;4956659;28;20201;-74
2021/12/09 03:46:12;;;;;;;0.40;0.40;;;4.60;97.90;;;;;;4956711;28;20275;-73
2021/12/09 03:48:38;;;;;;;0.40;0.40;;;4.60;98.00;;;;;;4956535;28;20212;-73
2021/12/09 03:51:04;;;;;;;0.40;0.40;;;4.60;98.10;;;;;;4956717;28;20456;-74
2021/12/09 03:53:29;;;;;;;0.37;0.37;;;4.60;98.00;;;;;;4956504;29;20204;-75
2021/12/09 03:55:56;;;;;;;0.30;0.30;;;4.60;98.00;;;;;;4956770;28;20197;-75
2021/12/09 03:58:22;;;;;;;0.40;0.40;;;4.50;97.90;;;;;;4955798;28;20401;-75
2021/12/09 04:00:48;;;;;;;0.40;0.40;;;4.60;98.10;;;;;;4956234;29;20735;-72
2021/12/09 04:03:16;;;;;;;0.40;0.40;;;4.60;98.00;;;;;;4956349;28;20244;-75
2021/12/09 04:05:42;;;;;;;0.40;0.40;;;4.50;98.00;;;;;;4956461;28;20201;-74
2021/12/09 04:08:08;;;;;;;0.40;0.40;;;4.50;99.90;;;;;;4955674;29;20835;-70
2021/12/09 04:10:34;;;;;;;0.30;0.30;;;4.70;99.90;;;;;;4955749;29;20309;-70
2021/12/09 04:13:00;;;;;;;0.30;0.30;;;5.50;99.90;;;;;;4955314;28;20237;-71
2021/12/09 04:15:26;;;;;;;0.35;0.35;;;6.50;99.90;;;;;;4956056;29;20224;-73
2021/12/09 04:17:52;;;;;;;0.32;0.32;;;7.30;95.80;;;;;;4955949;29;20204;-73
2021/12/09 04:20:18;;;;;;;0.40;0.40;;;7.20;93.20;;;;;;4956450;29;20205;-72
2021/12/09 04:22:48;;;;;;;0.40;0.40;;;6.90;92.80;;;;;;4953328;29;20689;-71
2021/12/09 04:25:16;;;;;;;0.40;0.40;;;6.40;93.40;;;;;;4955977;29;20501;-72
2021/12/09 04:27:42;;;;;;;0.40;0.40;;;6.10;94.00;;;;;;4954846;29;20173;-73
2021/12/09 04:30:08;;;;;;;0.40;0.40;;;5.80;94.30;;;;;;4955650;28;20186;-73
2021/12/09 04:32:33;;;;;;;0.40;0.40;;;5.60;94.70;;;;;;4954544;29;20448;-72
2021/12/09 04:34:59;;;;;;;0.40;0.40;;;5.40;95.10;;;;;;4955773;29;20201;-73
2021/12/09 04:37:25;;;;;;;0.30;0.30;;;5.20;95.30;;;;;;4955764;29;20169;-76
2021/12/09 04:39:50;;;;;;;0.37;0.37;;;5.10;95.60;;;;;;4955955;29;20185;-73
2021/12/09 04:42:16;;;;;;;0.40;0.40;;;4.90;95.90;;;;;;4955764;28;20666;-73
2021/12/09 04:44:42;;;;;;;0.40;0.40;;;4.70;96.30;;;;;;4955939;28;20993;-72
2021/12/09 04:47:08;;;;;;;0.40;0.40;;;4.80;96.70;;;;;;4954291;29;20222;-73
2021/12/09 04:49:33;;;;;;;0.30;0.30;;;4.60;96.60;;;;;;4955739;28;20181;-72
2021/12/09 04:52:00;;;;;;;0.40;0.40;;;4.50;97.00;;;;;;4953798;29;20342;-73
2021/12/09 04:54:26;;;;;;;0.40;0.40;;;4.50;97.20;;;;;;4954877;29;20204;-73
2021/12/09 04:56:52;;;;;;;0.30;0.30;;;4.40;97.50;;;;;;4956073;28;20292;-73
2021/12/09 04:59:18;;;;;;;0.40;0.40;;;4.30;97.60;;;;;;4955233;28;20797;-73
2021/12/09 05:01:48;;;;;;;0.40;0.40;;;4.40;97.90;;;;;;4955802;28;20301;-73
2021/12/09 05:04:14;;;;;;;0.40;0.40;;;4.50;97.80;;;;;;4954617;29;20173;-73
2021/12/09 05:06:40;;;;;;;0.40;0.40;;;4.40;97.50;;;;;;4954381;29;20196;-73
2021/12/09 05:09:10;;;;;;;0.40;0.40;;;4.10;97.30;;;;;;4955403;29;20669;-73
2021/12/09 05:14:04;;;;;;;0.40;0.40;;;4.30;97.60;;;;;;4955347;29;20544;-72
2021/12/09 05:16:31;;;;;;;0.32;0.32;;;4.40;97.40;;;;;;4955229;28;20201;-73
2021/12/09 05:18:58;;;;;;;0.30;0.30;;;4.30;97.20;;;;;;4955203;29;20177;-72
2021/12/09 05:21:30;;;;;;;0.40;0.40;;;4.40;97.20;;;;;;4955160;29;20548;-72
2021/12/09 05:23:57;;;;;;;0.38;0.38;;;4.30;96.80;;;;;;4955157;28;20158;-73
2021/12/09 05:26:29;;;;;;;0.30;0.30;;;4.30;96.90;;;;;;4955636;28;20228;-74
2021/12/09 05:28:57;;;;;;;0.40;0.40;;;4.30;97.10;;;;;;4955256;28;20185;-71
2021/12/09 05:34:08;;;;;;;0.40;0.40;;;4.10;97.30;;;;;;4955440;29;20543;-72
2021/12/09 05:36:34;;;;;;;0.32;0.32;;;3.80;96.90;;;;;;4955209;28;20263;-74
2021/12/09 05:39:00;;;;;;;0.37;0.37;;;4.00;97.50;;;;;;4954990;29;20170;-73
2021/12/09 05:41:26;;;;;;;0.40;0.40;;;4.20;97.80;;;;;;4955152;28;20483;-72
2021/12/09 05:43:51;;;;;;;0.40;0.40;;;4.30;97.80;;;;;;4955002;29;20466;-72
2021/12/09 05:46:17;;;;;;;0.30;0.30;;;4.30;97.60;;;;;;4953948;29;20177;-73
2021/12/09 05:48:43;;;;;;;0.40;0.40;;;4.20;97.50;;;;;;4954821;29;20649;-73
2021/12/09 05:51:08;;;;;;;0.30;0.30;;;4.10;97.60;;;;;;4955633;28;20549;-74
2021/12/09 05:53:34;;;;;;;0.30;0.30;;;4.20;97.80;;;;;;4955090;29;20275;-73
2021/12/09 05:56:00;;;;;;;0.33;0.33;;;4.10;97.60;;;;;;4954901;29;20201;-72
2021/12/09 05:58:26;;;;;;;0.40;0.40;;;4.30;97.70;;;;;;4954875;29;20235;-72
2021/12/09 06:00:53;;;;;;;0.40;0.40;;;4.30;97.60;;;;;;4954919;29;20770;-75
2021/12/09 06:03:20;;;;;;;0.40;0.40;;;4.30;97.60;;;;;;4954746;29;20425;-75
2021/12/09 06:05:48;;;;;;;0.32;0.32;;;4.30;97.60;;;;;;4954836;29;20182;-72
2021/12/09 06:08:14;;;;;;;0.40;0.40;;;4.30;97.50;;;;;;4954838;29;20268;-70
2021/12/09 06:10:39;;;;;;;0.40;0.40;;;4.30;97.50;;;;;;4955010;28;20275;-73
2021/12/09 06:13:05;;;;;;;0.30;0.30;;;4.40;97.60;;;;;;4954682;29;20439;-73
2021/12/09 06:15:31;;;;;;;0.40;0.40;;;4.30;97.50;;;;;;4954994;29;20210;-73
2021/12/09 06:17:57;;;;;;;0.40;0.40;;;4.40;97.70;;;;;;4954604;29;20184;-73
2021/12/09 06:20:25;;;;;;;0.33;0.33;;;4.40;97.80;;;;;;4954964;28;20174;-73
2021/12/09 06:22:51;;;;;;;0.30;0.30;;;4.40;97.60;;;;;;4956683;28;20185;-73
2021/12/09 06:25:18;;;;;;;0.30;0.30;;;4.50;97.50;;;;;;4958549;28;20547;-73
2021/12/09 06:27:48;;;;;;;0.30;0.30;;;4.50;97.40;;;;;;4958189;28;20330;-74
2021/12/09 06:30:16;;;;;;;0.40;0.40;;;4.60;97.40;;;;;;4958277;28;20203;-73
2021/12/09 06:32:42;;;;;;;0.40;0.40;;;4.50;97.30;;;;;;4958081;28;20198;-72
2021/12/09 06:35:10;;;;;;;0.40;0.40;;;4.40;97.10;;;;;;4956712;29;20217;-71
2021/12/09 06:37:39;;;;;;;0.40;0.40;;;4.30;97.10;;;;;;4957915;28;20166;-74
2021/12/09 06:40:07;;;;;;;0.40;0.40;;;4.40;97.30;;;;;;4957978;29;20172;-72
2021/12/09 06:42:33;;;;;;;0.38;0.38;;;4.40;97.40;;;;;;4957883;29;20201;-72
2021/12/09 06:44:58;;;;;;;0.40;0.40;;;4.40;97.30;;;;;;4957869;29;20200;-73
2021/12/09 06:47:24;;;;;;;0.30;0.30;;;4.40;97.10;;;;;;4957887;29;20542;-74
2021/12/09 06:49:50;;;;;;;0.30;0.30;;;4.40;97.20;;;;;;4957982;29;20649;-73
2021/12/09 06:52:16;;;;;;;0.30;0.30;;;4.50;97.20;;;;;;4956005;28;20194;-75
2021/12/09 06:54:42;;;;;;;0.30;0.30;;;4.40;97.00;;;;;;4957333;29;20185;-74
2021/12/09 06:57:08;;;;;;;0.30;0.30;;;4.40;97.30;;;;;;4957544;29;20256;-74
2021/12/09 06:59:34;;;;;;;0.30;0.30;;;4.40;97.10;;;;;;4956104;28;20277;-73
2021/12/09 07:02:00;;;;;;;0.47;0.47;;;4.50;97.10;;;;;;4956424;29;20190;-73
2021/12/09 07:04:26;;;;;;;0.30;0.30;;;4.40;97.00;;;;;;4957169;28;20648;-84
2021/12/09 07:06:52;;;;;;;1.02;1.02;;;4.30;96.80;;;;;;4956512;28;20582;-73
2021/12/09 07:09:17;;;;;;;0.40;0.40;;;4.40;96.60;;;;;;4957371;29;20213;-74
2021/12/09 07:11:47;;;;;;;0.40;0.40;;;4.40;96.70;;;;;;4957764;29;20177;-72
2021/12/09 07:14:13;;;;;;;0.40;0.40;;;4.50;96.80;;;;;;4958059;29;20419;-72
2021/12/09 07:16:39;;;;;;;0.40;0.40;;;4.40;96.80;;;;;;4957476;28;20221;-75
2021/12/09 07:19:04;;;;;;;0.40;0.40;;;4.50;96.70;;;;;;4957317;29;20174;-72
2021/12/09 07:21:30;;;;;;;0.37;0.37;;;4.50;96.60;;;;;;4956199;28;20417;-72
2021/12/09 07:23:56;;;;;;;0.40;0.40;;;4.40;96.70;;;;;;4957641;29;20180;-71
2021/12/09 07:26:22;;;;;;;0.40;0.40;;;4.50;96.90;;;;;;4957714;28;20170;-71
2021/12/09 07:28:47;;;;;;;0.40;0.40;;;4.50;96.80;;;;;;4956974;28;20779;-73
2021/12/09 07:31:15;;;;;;;0.40;0.40;;;4.60;96.90;;;;;;4957546;29;20179;-73
2021/12/09 07:33:41;;;;;;;0.40;0.40;;;4.50;96.70;;;;;;4956203;28;20192;-74
2021/12/09 07:36:07;;;;;;;0.40;0.40;;;4.60;96.70;;;;;;4957209;28;20213;-78
2021/12/09 07:38:33;;;;;;;0.37;0.37;;;4.60;96.50;;;;;;4957231;29;20234;-74
2021/12/09 07:40:58;;;;;;;0.40;0.40;;;4.60;96.30;;;;;;4957194;29;20176;-73
2021/12/09 07:43:24;;;;;;;0.37;0.37;;;4.50;96.20;;;;;;4956797;29;20248;-74
2021/12/09 07:45:49;;;;;;;0.30;0.30;;;4.50;96.00;;;;;;4957030;29;20239;-73
2021/12/09 07:48:15;;;;;;;0.30;0.30;;;4.50;96.10;;;;;;4956873;28;20235;-73
2021/12/09 07:50:41;;;;;;;0.30;0.30;;;4.50;95.90;;;;;;4956932;29;20174;-76
2021/12/09 07:53:07;;;;;;;0.30;0.30;;;4.50;96.00;;;;;;4956599;28;20224;-75
2021/12/09 07:55:33;;;;;;;0.30;0.30;;;4.50;96.20;;;;;;4956951;28;20684;-74
2021/12/09 07:57:58;;;;;;;0.30;0.30;;;4.60;96.30;;;;;;4956381;29;20495;-74
2021/12/09 08:00:31;;;;;;;0.40;0.40;;;4.60;96.10;;;;;;4956504;28;20592;-76
2021/12/09 08:02:58;;;;;;;0.38;0.38;;;4.50;96.30;;;;;;4956640;28;20189;-75
2021/12/09 08:05:27;;;;;;;0.40;0.40;;;4.50;96.40;;;;;;4956785;28;20184;-73
2021/12/09 08:07:53;;;;;;;1.70;0.93;;;4.50;96.30;;;;;;4956409;29;20208;-75
2021/12/09 08:10:19;;;;;;;0.40;0.40;;;4.50;96.20;;;;;;4957012;28;20205;-76
2021/12/09 08:12:46;;;;;;;0.40;0.40;;;4.40;96.30;;;;;;4956181;29;20443;-74
2021/12/09 08:15:15;;;;;;;0.40;0.40;;;4.40;96.30;;;;;;4956199;28;20196;-72
2021/12/09 08:20:08;;;;;;;0.40;0.40;;;4.50;96.10;;;;;;4956567;29;20180;-74
2021/12/09 08:22:34;;;;;;;0.40;0.40;;;4.40;96.10;;;;;;4956400;29;20205;-74
2021/12/09 08:25:00;;;;;;;0.40;0.40;;;4.40;96.30;;;;;;4956306;28;20173;-74
2021/12/09 08:27:27;;;;;;;0.40;0.40;;;4.50;96.40;;;;;;4956136;28;20209;-74
2021/12/09 08:29:52;;;;;;;0.30;0.30;;;4.60;96.40;;;;;;4956142;29;20206;-75
2021/12/09 08:32:18;;;;;;;0.40;0.40;;;4.60;96.30;;;;;;4956164;28;20680;-75
2021/12/09 08:34:44;;;;;;;0.40;0.40;;;4.40;96.00;;;;;;4956363;29;20228;-72
2021/12/09 08:53:28;;;;;;;0.40;0.40;;;4.80;95.30;;;;;;4954454;29;20722;-73
2021/12/09 08:55:54;;;;;;;0.30;0.30;;;4.90;95.30;;;;;;4955215;28;20234;-74
2021/12/09 08:58:21;;;;;;;0.30;0.30;;;5.00;95.40;;;;;;4955895;28;20188;-73
2021/12/09 09:00:49;;;;;;;0.30;0.30;;;5.00;95.10;;;;;;4955777;28;20177;-72
2021/12/09 09:03:15;;;;;;;0.40;0.40;;;5.10;94.80;;;;;;4956096;28;20616;-75
2021/12/09 09:05:42;;;;;;;0.40;0.40;;;5.10;95.10;;;;;;4955496;28;20332;-75
2021/12/09 09:08:08;;;;;;;0.40;0.40;;;5.00;95.20;;;;;;4955659;28;20298;-71
2021/12/09 09:10:36;;;;;;;0.40;0.40;;;5.00;94.70;;;;;;4955403;28;20349;-73
2021/12/09 09:13:03;;;;;;;0.32;0.32;;;5.00;94.90;;;;;;4955805;28;20417;-73
2021/12/09 09:15:31;;;;;;;0.30;0.30;;;5.10;94.60;;;;;;4955457;28;20208;-70
2021/12/09 09:17:58;;;;;;;0.40;0.40;;;5.20;94.50;;;;;;4955981;28;20648;-71
2021/12/09 09:20:26;;;;;;;0.35;0.35;;;5.20;94.40;;;;;;4955392;28;20256;-72
2021/12/09 09:22:52;;;;;;;0.40;0.40;;;5.20;94.20;;;;;;4955410;28;20178;-75
2021/12/09 09:25:22;;;;;;;0.40;0.40;;;5.30;94.50;;;;;;4955480;28;20296;-74
2021/12/09 09:27:49;;;;;;;0.30;0.30;;;5.30;94.20;;;;;;4954378;29;20659;-72
2021/12/09 09:30:18;;;;;;;0.30;0.30;;;5.30;94.70;;;;;;4955199;28;20574;-72
2021/12/09 09:32:46;;;;;;;0.40;0.40;;;5.20;94.30;;;;;;4955848;28;20177;-73
2021/12/09 09:35:11;;;;;;;0.40;0.40;;;5.00;94.00;;;;;;4955509;28;20209;-72
2021/12/09 09:37:37;;;;;;;0.40;0.40;;;4.90;94.60;;;;;;4955537;28;20621;-73
2021/12/09 09:40:09;;;;;;;0.32;0.32;;;5.00;94.60;;;;;;4955060;28;20249;-74
2021/12/09 09:45:11;;;;;;;0.40;0.40;;;5.20;94.70;;;;;;4955348;28;20231;-72
2021/12/09 09:47:38;;;;;;;0.35;0.35;;;5.20;94.20;;;;;;4955372;28;20244;-73
2021/12/09 09:50:06;;;;;;;0.35;0.35;;;5.30;94.50;;;;;;4954939;28;20196;-72
2021/12/09 09:52:32;;;;;;;0.40;0.40;;;5.20;94.20;;;;;;4955142;28;20178;-73
2021/12/09 09:55:00;;;;;;;0.40;0.40;;;5.30;94.60;;;;;;4954889;28;20586;-72
2021/12/09 09:57:26;;;;;;;0.40;0.40;;;5.40;94.60;;;;;;4956553;28;20607;-74
2021/12/09 09:59:52;;;;;;;0.40;0.40;;;5.40;94.30;;;;;;4958658;28;20204;-72
2021/12/09 10:02:18;;;;;;;0.40;0.40;;;5.60;94.50;;;;;;4958659;28;20170;-73
2021/12/09 10:04:48;;;;;;;0.40;0.40;;;5.50;93.90;;;;;;4958492;28;20866;-72
2021/12/09 10:07:20;;;;;;;0.40;0.40;;;5.50;94.00;;;;;;4958524;28;20249;-72
2021/12/09 10:09:47;;;;;;;0.40;0.40;;;5.60;94.10;;;;;;4958844;28;20189;-70
2021/12/09 10:12:14;;;;;;;0.38;0.38;;;5.60;94.40;;;;;;4958630;28;20185;-72
2021/12/09 10:14:44;;;;;;;0.40;0.40;;;5.70;94.60;;;;;;4958967;28;20576;-74
2021/12/09 10:17:14;;;;;;;0.40;0.40;;;5.60;94.10;;;;;;4958686;28;20197;-73
2021/12/09 10:20:01;;;;;;;0.40;0.40;;;5.40;94.60;;;;;;4958486;28;20269;-75
2021/12/09 10:22:33;;;;;;;0.30;0.30;;;5.40;94.80;;;;;;4958810;28;20177;-74
2021/12/09 10:25:02;;;;;;;0.30;0.30;;;5.40;94.70;;;;;;4958933;28;20216;-74
2021/12/09 10:27:33;;;;;;;0.30;0.30;;;5.50;94.80;;;;;;4958348;28;20260;-73
2021/12/09 10:30:11;;;;;;;0.40;0.40;;;5.70;95.00;;;;;;4958496;28;20166;-72
2021/12/09 10:32:37;;;;;;;0.30;0.30;;;5.70;94.60;;;;;;4958582;28;20202;-73
2021/12/09 10:35:07;;;;;;;0.40;0.40;;;5.90;94.30;;;;;;4958523;28;20268;-72
2021/12/09 10:37:35;;;;;;;0.30;0.30;;;5.90;93.80;;;;;;4958313;28;20649;-72
2021/12/09 10:40:00;;;;;;;0.30;0.30;;;5.90;93.30;;;;;;4957752;28;20205;-72
2021/12/09 10:42:32;;;;;;;0.40;0.40;;;6.00;93.40;;;;;;4957209;28;20265;-73
2021/12/09 10:45:04;;;;;;;0.40;0.40;;;5.80;93.20;;;;;;4958077;28;20248;-73
2021/12/09 10:50:33;;;;;;;0.30;0.30;;;5.70;93.70;;;;;;4957608;28;20261;-73
2021/12/09 10:55:57;;;;;;;0.40;0.40;;;5.20;94.80;;;;;;4957528;28;20217;-73
2021/12/09 10:58:25;;;;;;;0.30;0.30;;;5.40;95.10;;;;;;4957752;28;20169;-72
2021/12/09 11:01:16;;;;;;;0.40;0.40;;;5.50;94.50;;;;;;4957596;28;20325;-72
2021/12/09 11:03:45;;;;;;;0.40;0.40;;;5.40;93.80;;;;;;4956463;29;20173;-74
2021/12/09 11:06:14;;;;;;;0.60;0.60;;;5.50;94.20;;;;;;4957248;28;20197;-70
2021/12/09 11:08:57;;;;;;;0.40;0.40;;;5.50;94.10;;;;;;4957569;28;20185;-73
2021/12/09 11:11:30;;;;;;;0.40;0.40;;;5.50;94.10;;;;;;4957407;28;20695;-75
2021/12/09 11:14:04;;;;;;;0.30;0.30;;;5.60;94.40;;;;;;4957710;28;20182;-72
2021/12/09 11:16:32;;;;;;;0.40;0.40;;;5.60;94.10;;;;;;4957749;28;20209;-74
2021/12/09 11:19:09;;;;;;;0.30;0.30;;;5.60;93.80;;;;;;4956092;29;20178;-74
2021/12/09 11:21:46;;;;;;;0.40;0.40;;;5.60;93.80;;;;;;4957835;28;20166;-73
2021/12/09 11:24:18;;;;;;;0.40;0.40;;;5.60;93.80;;;;;;4957480;28;20188;-74
2021/12/09 11:29:25;;;;;;;0.35;0.35;;;5.40;94.00;;;;;;4957588;28;20178;-73
2021/12/09 11:32:09;;;;;;;0.40;0.40;;;5.40;94.30;;;;;;4957826;28;20253;-73
2021/12/09 11:34:46;;;;;;;0.40;0.40;;;5.40;94.20;;;;;;4957226;28;20181;-72
2021/12/09 11:39:53;;;;;;;0.40;0.40;;;5.00;94.60;;;;;;4956715;28;20744;-73
2021/12/09 11:42:32;;;;;;;0.73;0.73;;;4.90;95.00;;;;;;4955769;28;20186;-73
2021/12/09 11:44:58;;;;;;;0.40;0.40;;;5.00;95.30;;;;;;4957130;28;20189;-74
2021/12/09 11:47:24;;;;;;;0.40;0.40;;;4.70;94.60;;;;;;4956707;28;20184;-74
2021/12/09 11:49:53;;;;;;;0.40;0.40;;;4.80;94.80;;;;;;4956640;28;20538;-73
2021/12/09 11:52:20;;;;;;;0.40;0.40;;;4.70;94.90;;;;;;4956734;28;20405;-72
2021/12/09 11:55:03;;;;;;;0.40;0.40;;;4.80;95.30;;;;;;4956661;28;20209;-75
2021/12/09 11:57:37;;;;;;;0.40;0.40;;;5.00;95.10;;;;;;4956622;28;20633;-74
2021/12/09 12:07:05;;;;;;;0.40;0.40;;;5.00;94.50;;;;;;4955976;28;20268;-74
2021/12/09 12:14:59;;;;;;;0.40;0.40;;;5.10;94.40;;;;;;4956105;28;20348;-71
2021/12/09 12:17:41;;;;;;;0.30;0.30;;;6.20;99.90;;;;;;4955156;28;20182;-74
2021/12/09 12:26:08;;;;;;;0.40;0.40;;;6.60;90.70;;;;;;4956201;28;20197;-78
2021/12/09 12:31:35;;;;;;;0.40;0.40;;;6.40;90.90;;;;;;4956118;28;20170;-74
2021/12/09 12:34:15;;;;;;;0.30;0.30;;;6.10;91.10;;;;;;4956521;28;20190;-76
2021/12/09 12:37:10;;;;;;;0.40;0.40;;;6.10;91.50;;;;;;4956126;28;20554;-73
2021/12/09 12:40:02;;;;;;;0.50;0.50;;;6.00;92.00;;;;;;4955989;28;20276;-75
2021/12/09 12:42:44;;;;;;;0.40;0.40;;;5.80;92.00;;;;;;4956549;28;20172;-76
2021/12/09 12:47:59;;;;;;;0.30;0.30;;;5.50;92.40;;;;;;4956326;28;20224;-76
2021/12/09 12:50:25;;;;;;;0.40;0.40;;;5.40;92.10;;;;;;4955682;28;20248;-72
2021/12/09 12:52:53;;;;;;;0.35;0.35;;;5.50;93.30;;;;;;4956293;28;20177;-75
2021/12/09 12:55:26;;;;;;;0.40;0.40;;;5.40;92.70;;;;;;4955524;28;20296;-73
2021/12/09 12:57:54;;;;;;;0.40;0.40;;;5.50;92.80;;;;;;4955582;28;20193;-75
2021/12/09 13:00:24;;;;;;;0.40;0.40;;;5.60;92.60;;;;;;4955487;28;20200;-77
2021/12/09 13:10:51;;;;;;;0.40;0.40;;;5.40;91.80;;;;;;4955100;28;20177;-73
2021/12/09 13:14:20;;;;;;;0.40;0.40;;;5.30;92.70;;;;;;4956107;28;20499;-77
2021/12/09 13:16:26;;;;;;;0.40;0.40;;;5.30;93.10;;;;;;4951274;28;20255;-75
2021/12/09 13:19:20;;;;;;;0.30;0.30;;;5.00;92.70;;;;;;4955654;28;20173;-76
2021/12/09 13:22:15;;;;;;;0.40;0.40;;;5.00;93.60;;;;;;4955888;28;20194;-73
2021/12/09 13:24:58;;;;;;;0.40;0.40;;;5.10;94.00;;;;;;4948009;28;20212;-74
2021/12/09 13:35:46;;;;;;;0.40;0.40;;;5.00;93.30;;;;;;4958698;28;20188;-76
2021/12/09 13:38:19;;;;;;;0.40;0.40;;;5.10;93.50;;;;;;4959424;28;20181;-76
2021/12/09 13:54:23;;;;;;;0.30;0.30;;;5.20;93.60;;;;;;4958772;28;20501;-73
2021/12/09 13:57:03;;;;;;;0.40;0.40;;;5.20;93.80;;;;;;4958726;28;20190;-75
2021/12/09 13:59:34;;;;;;;0.40;0.40;;;5.20;93.70;;;;;;4958751;28;20166;-71
2021/12/09 14:02:17;;;;;;;0.30;0.30;;;5.10;93.30;;;;;;4959137;28;20545;-75
2021/12/09 14:04:43;;;;;;;0.40;0.40;;;5.00;93.80;;;;;;4958745;28;20197;-74
2021/12/09 14:07:27;;;;;;;0.52;0.52;;;5.10;93.60;;;;;;4959021;28;20180;-73
2021/12/09 14:10:08;;;;;;;0.30;0.30;;;5.00;93.50;;;;;;4958538;28;20208;-76
2021/12/09 14:12:46;;;;;;;0.30;0.30;;;5.00;93.70;;;;;;4957442;29;20177;-74
2021/12/09 14:15:17;;;;;;;0.40;0.40;;;4.90;93.70;;;;;;4958677;28;20672;-76
2021/12/09 14:17:45;;;;;;;0.40;0.40;;;4.50;93.50;;;;;;4959163;28;20150;-74
2021/12/09 14:20:20;;;;;;;0.40;0.40;;;4.50;94.00;;;;;;4958439;28;20197;-72
2021/12/09 14:22:50;;;;;;;0.40;0.40;;;4.50;93.70;;;;;;4958311;28;20633;-73
2021/12/09 14:25:25;;;;;;;0.30;0.30;;;4.60;94.00;;;;;;4957943;28;20747;-69
2021/12/09 14:27:54;;;;;;;0.38;0.38;;;4.60;94.10;;;;;;4958213;28;20165;-73
2021/12/09 14:30:21;;;;;;;0.30;0.30;;;4.40;94.00;;;;;;4957692;28;20273;-73
2021/12/09 14:32:54;;;;;;;0.30;0.30;;;4.10;94.50;;;;;;4958836;28;20173;-74
2021/12/09 14:35:25;;;;;;;0.35;0.35;;;4.20;95.00;;;;;;4958213;28;20723;-72